Time;durP1;ratioP1;P1;durP2;ratioP2;P2;SDS_P1;SDS_P2;PMS_P1;PMS_P2;Temp;Humidity;BMP_temperature;BMP_pressure;BME280_temperature;BME280_humidity;BME280_pressure;Samples;Min_cycle;Max_cycle;Signal;HPM_P1;HPM_P2
2022/01/18 00:02:10;;;;;;;;;;;;;;;21.95;39.42;103668.31;7288390;19;151458;-50
2022/01/18 00:04:37;;;;;;;;;;;;;;;21.92;39.34;103665.97;7288336;19;153344;-50
2022/01/18 00:07:04;;;;;;;;;;;;;;;21.89;39.63;103669.28;7294021;19;153280;-50
2022/01/18 00:09:31;;;;;;;;;;;;;;;21.86;39.71;103666.97;7287846;19;152696;-50
2022/01/18 00:12:13;;;;;;;;;;;;;;;21.84;40.20;103666.38;7283792;19;153938;-51
2022/01/18 00:14:43;;;;;;;;;;;;;;;21.82;40.27;103662.94;7288193;19;151686;-51
2022/01/18 00:19:41;;;;;;;;;;;;;;;21.74;40.41;103662.25;7284695;19;153362;-51
2022/01/18 00:22:12;;;;;;;;;;;;;;;21.72;40.33;103663.59;7287222;19;151549;-50
2022/01/18 00:24:40;;;;;;;;;;;;;;;21.69;40.37;103658.47;7287624;19;153298;-50
2022/01/18 00:27:10;;;;;;;;;;;;;;;21.66;40.31;103654.22;7286669;19;154001;-51
2022/01/18 00:29:41;;;;;;;;;;;;;;;21.62;40.71;103657.78;7290475;19;151859;-50
2022/01/18 00:32:13;;;;;;;;;;;;;;;21.59;40.93;103661.06;7285854;19;153243;-50
2022/01/18 00:34:41;;;;;;;;;;;;;;;21.56;40.66;103661.59;7287247;19;152126;-50
2022/01/18 00:39:38;;;;;;;;;;;;;;;21.52;41.29;103668.81;7286056;19;154013;-49
2022/01/18 00:42:05;;;;;;;;;;;;;;;21.48;41.46;103660.03;7285645;19;152086;-50
2022/01/18 00:44:32;;;;;;;;;;;;;;;21.45;41.13;103665.28;7286682;19;152035;-50
2022/01/18 00:46:59;;;;;;;;;;;;;;;21.43;41.21;103661.88;7285801;19;154265;-50
2022/01/18 00:49:26;;;;;;;;;;;;;;;21.41;41.28;103655.63;7282881;19;152215;-50
2022/01/18 00:51:56;;;;;;;;;;;;;;;21.38;41.80;103654.19;7291467;19;153229;-50
2022/01/18 00:54:32;;;;;;;;;;;;;;;21.35;41.52;103651.00;7285761;19;151926;-50
2022/01/18 00:56:59;;;;;;;;;;;;;;;21.31;41.92;103645.00;7285381;19;152639;-51
2022/01/18 00:59:26;;;;;;;;;;;;;;;21.29;41.67;103650.03;7283597;19;153323;-51
2022/01/18 01:01:53;;;;;;;;;;;;;;;21.24;41.60;103645.16;7286751;19;151817;-50
2022/01/18 01:04:22;;;;;;;;;;;;;;;21.21;41.96;103647.63;7284948;19;154135;-50
2022/01/18 01:06:49;;;;;;;;;;;;;;;21.01;37.22;103642.34;7281661;19;153299;-51
2022/01/18 01:09:16;;;;;;;;;;;;;;;20.98;39.35;103647.63;7285838;19;151844;-50
2022/01/18 01:11:43;;;;;;;;;;;;;;;20.95;40.04;103639.66;7284431;19;152614;-50
2022/01/18 01:14:14;;;;;;;;;;;;;;;20.93;40.22;103634.31;7290741;19;151693;-50
2022/01/18 01:42:05;;;;;;;;;;;;;;;20.62;41.42;103615.00;7284947;19;152128;-50
2022/01/18 01:47:05;;;;;;;;;;;;;;;20.57;41.23;103614.88;7282921;19;153581;-50
2022/01/18 01:49:32;;;;;;;;;;;;;;;20.56;41.56;103614.03;7283700;19;151922;-50
2022/01/18 01:52:02;;;;;;;;;;;;;;;20.53;41.26;103613.66;7285213;19;153188;-50
2022/01/18 01:54:29;;;;;;;;;;;;;;;20.49;41.45;103613.28;7284080;19;154304;-50
2022/01/18 01:56:56;;;;;;;;;;;;;;;20.49;41.46;103615.25;7291539;19;151844;-50
2022/01/18 01:59:23;;;;;;;;;;;;;;;20.46;41.66;103608.16;7281263;19;154304;-50
2022/01/18 02:01:50;;;;;;;;;;;;;;;20.43;41.69;103605.84;7285088;19;152104;-51
2022/01/18 02:04:17;;;;;;;;;;;;;;;20.42;41.77;103606.94;7283144;19;152933;-51
2022/01/18 02:06:45;;;;;;;;;;;;;;;20.40;42.02;103609.13;7279168;19;153725;-50
2022/01/18 02:09:12;;;;;;;;;;;;;;;20.39;41.80;103610.25;7284589;19;151911;-50
2022/01/18 02:11:39;;;;;;;;;;;;;;;20.35;41.73;103609.84;7281315;19;151842;-51
2022/01/18 02:14:12;;;;;;;;;;;;;;;20.32;41.76;103609.47;7282447;19;153017;-50
2022/01/18 02:24:10;;;;;;;;;;;;;;;20.24;42.08;103615.44;7283784;19;153092;-50
2022/01/18 02:26:37;;;;;;;;;;;;;;;20.22;42.07;103621.28;7281464;19;153882;-50
2022/01/18 02:29:05;;;;;;;;;;;;;;;20.20;42.33;103615.06;7280318;19;152589;-50
2022/01/18 02:31:33;;;;;;;;;;;;;;;20.17;42.35;103612.72;7281137;19;153376;-50
2022/01/18 02:34:00;;;;;;;;;;;;;;;20.16;42.55;103615.78;7278863;19;152295;-50
2022/01/18 02:36:27;;;;;;;;;;;;;;;20.13;42.71;103617.09;7281915;19;151813;-50
2022/01/18 02:38:54;;;;;;;;;;;;;;;20.11;42.63;103612.84;7281988;19;152792;-50
2022/01/18 02:41:25;;;;;;;;;;;;;;;20.09;42.84;103618.69;7289252;19;153591;-50
2022/01/18 02:43:55;;;;;;;;;;;;;;;20.06;42.86;103615.50;7283744;19;152693;-50
2022/01/18 02:46:22;;;;;;;;;;;;;;;20.01;42.88;103613.41;7280893;19;152837;-49
2022/01/18 02:48:49;;;;;;;;;;;;;;;20.01;42.36;103609.75;7282419;19;152341;-50
2022/01/18 02:51:16;;;;;;;;;;;;;;;20.00;42.33;103608.91;7278830;19;152741;-50
2022/01/18 02:53:46;;;;;;;;;;;;;;;19.97;42.63;103609.38;7279858;19;153685;-50
2022/01/18 02:56:13;;;;;;;;;;;;;;;19.93;42.42;103606.22;7283236;19;151904;-49
2022/01/18 02:58:40;;;;;;;;;;;;;;;19.90;42.38;103587.03;7282862;19;153229;-50
2022/01/18 03:03:37;;;;;;;;;;;;;;;19.86;42.81;103591.41;7290637;19;151774;-50
2022/01/18 03:06:05;;;;;;;;;;;;;;;19.84;42.60;103588.00;7280409;19;153991;-50
2022/01/18 03:08:33;;;;;;;;;;;;;;;19.82;42.38;103581.78;7280846;19;152247;-51
2022/01/18 03:11:02;;;;;;;;;;;;;;;19.82;42.64;103584.56;7278251;19;153468;-51
2022/01/18 03:13:30;;;;;;;;;;;;;;;19.80;43.08;103581.16;7281741;19;153303;-50
2022/01/18 03:15:57;;;;;;;;;;;;;;;19.79;42.86;103584.19;7280520;19;152040;-50
2022/01/18 03:18:24;;;;;;;;;;;;;;;19.77;42.80;103592.00;7286305;19;153050;-50
2022/01/18 03:20:51;;;;;;;;;;;;;;;19.76;42.71;103587.50;7288146;19;153658;-50
2022/01/18 03:23:20;;;;;;;;;;;;;;;19.72;42.80;103578.69;7295749;19;151790;-50
2022/01/18 03:28:18;;;;;;;;;;;;;;;19.70;42.94;103582.84;7288567;19;151613;-50
2022/01/18 03:30:47;;;;;;;;;;;;;;;19.68;42.75;103573.78;7288427;19;151895;-50
2022/01/18 03:33:16;;;;;;;;;;;;;;;19.68;42.69;103582.19;7287395;19;153934;-51
2022/01/18 03:35:44;;;;;;;;;;;;;;;19.65;42.75;103583.53;7288524;19;152197;-51
2022/01/18 03:38:12;;;;;;;;;;;;;;;19.63;43.00;103594.13;7286737;19;151889;-50
2022/01/18 03:40:40;;;;;;;;;;;;;;;19.62;42.80;103600.00;7287298;19;153641;-50
2022/01/18 03:43:10;;;;;;;;;;;;;;;19.58;42.91;103602.41;7285406;19;152123;-50
2022/01/18 03:45:41;;;;;;;;;;;;;;;19.57;43.41;103597.91;7293630;19;153738;-50
2022/01/18 03:48:12;;;;;;;;;;;;;;;19.54;43.37;103593.63;7285803;19;151842;-51
2022/01/18 03:50:39;;;;;;;;;;;;;;;19.52;43.54;103587.41;7286724;19;152747;-50
2022/01/18 03:53:09;;;;;;;;;;;;;;;19.51;43.17;103585.69;7286369;19;153290;-50
2022/01/18 03:55:35;;;;;;;;;;;;;;;19.49;43.63;103589.81;7288065;19;151555;-51
2022/01/18 03:58:02;;;;;;;;;;;;;;;19.47;43.81;103598.47;7286946;19;152288;-50
2022/01/18 04:00:29;;;;;;;;;;;;;;;19.44;43.61;103590.50;7284518;19;153423;-50
2022/01/18 04:02:58;;;;;;;;;;;;;;;19.45;43.51;103588.56;7286667;19;151928;-51
2022/01/18 04:05:26;;;;;;;;;;;;;;;19.44;43.82;103592.50;7287923;19;152263;-51
2022/01/18 04:07:53;;;;;;;;;;;;;;;19.42;43.95;103589.03;7292266;19;153936;-51
2022/01/18 04:10:20;;;;;;;;;;;;;;;19.40;43.89;103589.25;7286356;19;153045;-50
2022/01/18 04:12:47;;;;;;;;;;;;;;;19.39;43.93;103587.56;7286741;19;153203;-50
2022/01/18 04:15:15;;;;;;;;;;;;;;;19.37;44.23;103586.94;7287460;19;151946;-50
2022/01/18 04:27:49;;;;;;;;;;;;;;;19.26;43.94;103576.50;7282765;19;153324;-51
2022/01/18 04:30:16;;;;;;;;;;;;;;;19.24;44.11;103573.09;7292040;19;151802;-50
2022/01/18 04:32:43;;;;;;;;;;;;;;;19.26;43.64;103572.88;7282960;19;153945;-50
2022/01/18 04:35:10;;;;;;;;;;;;;;;19.22;43.81;103566.84;7287675;19;151928;-50
2022/01/18 04:37:37;;;;;;;;;;;;;;;19.21;44.03;103575.50;7286270;19;153269;-50
2022/01/18 04:40:11;;;;;;;;;;;;;;;19.17;43.97;103572.31;7283517;19;154182;-50
2022/01/18 04:43:00;;;;;;;;;;;;;;;19.16;43.98;103564.16;7286073;19;152070;-50
2022/01/18 04:50:26;;;;;;;;;;;;;;;19.14;43.75;103563.53;7287010;19;151793;-49
2022/01/18 04:52:53;;;;;;;;;;;;;;;19.15;43.96;103554.88;7291208;19;152664;-49
2022/01/18 04:55:20;;;;;;;;;;;;;;;19.20;44.25;103557.84;7286572;19;151787;-49
2022/01/18 05:00:17;;;;;;;;;;;;;;;19.25;44.29;103559.94;7284193;19;153251;-50
2022/01/18 05:02:44;;;;;;;;;;;;;;;19.29;44.33;103541.53;7287304;19;151711;-50
2022/01/18 05:05:18;;;;;;;;;;;;;;;19.34;44.31;103544.50;7285555;19;151863;-50
2022/01/18 05:07:47;;;;;;;;;;;;;;;19.37;44.66;103546.81;7283315;19;152765;-50
2022/01/18 05:10:16;;;;;;;;;;;;;;;19.42;45.19;103538.56;7283989;19;152178;-50
2022/01/18 05:12:47;;;;;;;;;;;;;;;19.47;45.30;103538.72;7280771;19;153254;-50
2022/01/18 05:18:09;;;;;;;;;;;;;;;19.59;44.93;103544.38;7284137;19;152732;-50
2022/01/18 05:23:04;;;;;;;;;;;;;;;19.73;45.12;103531.84;7285530;19;151916;-50
2022/01/18 05:25:32;;;;;;;;;;;;;;;19.80;44.59;103544.69;7284424;19;153341;-50
2022/01/18 05:28:00;;;;;;;;;;;;;;;19.85;44.43;103539.19;7283048;19;153979;-51
2022/01/18 05:30:27;;;;;;;;;;;;;;;19.93;44.60;103535.19;7282500;19;153804;-50
2022/01/18 05:32:55;;;;;;;;;;;;;;;19.99;44.43;103535.06;7280094;19;151903;-50
2022/01/18 05:35:23;;;;;;;;;;;;;;;20.05;44.05;103533.25;7290012;19;153922;-51
2022/01/18 05:37:50;;;;;;;;;;;;;;;20.12;44.00;103534.00;7282790;19;153179;-51
2022/01/18 05:40:17;;;;;;;;;;;;;;;20.18;44.18;103534.97;7281753;19;153504;-51
2022/01/18 05:42:45;;;;;;;;;;;;;;;20.24;43.86;103529.25;7283007;19;151699;-50
2022/01/18 05:45:12;;;;;;;;;;;;;;;20.31;43.37;103534.75;7286391;19;153352;-50
2022/01/18 05:47:39;;;;;;;;;;;;;;;20.36;43.49;103535.75;7284407;19;153116;-51
2022/01/18 05:50:08;;;;;;;;;;;;;;;20.43;43.23;103535.63;7282864;19;152171;-50
2022/01/18 05:52:35;;;;;;;;;;;;;;;20.47;43.08;103531.22;7281106;19;152639;-51
2022/01/18 05:55:02;;;;;;;;;;;;;;;20.53;42.64;103538.69;7282471;19;153080;-51
2022/01/18 05:57:30;;;;;;;;;;;;;;;20.58;42.56;103533.16;7289843;19;151953;-50
2022/01/18 06:02:37;;;;;;;;;;;;;;;20.69;42.72;103523.88;7282865;19;151709;-51
2022/01/18 06:07:34;;;;;;;;;;;;;;;20.79;42.07;103521.31;7282946;19;153337;-51
2022/01/18 06:10:02;;;;;;;;;;;;;;;20.84;42.58;103520.56;7281807;19;151969;-51
2022/01/18 06:12:29;;;;;;;;;;;;;;;20.89;42.75;103517.00;7283117;19;153558;-51
2022/01/18 06:14:56;;;;;;;;;;;;;;;20.93;42.62;103519.06;7281555;19;154204;-51
2022/01/18 06:17:23;;;;;;;;;;;;;;;20.98;42.80;103518.31;7283460;19;151598;-51
2022/01/18 06:19:51;;;;;;;;;;;;;;;21.01;42.86;103521.47;7290610;19;153952;-51
2022/01/18 06:22:18;;;;;;;;;;;;;;;21.06;42.54;103517.94;7283528;19;151869;-51
2022/01/18 06:24:45;;;;;;;;;;;;;;;21.11;42.40;103523.66;7282059;19;153164;-51
2022/01/18 06:27:12;;;;;;;;;;;;;;;21.13;42.31;103519.50;7283243;19;153649;-51
2022/01/18 06:29:39;;;;;;;;;;;;;;;21.18;42.30;103527.19;7282445;19;152387;-51
2022/01/18 06:32:06;;;;;;;;;;;;;;;21.22;42.35;103528.41;7282207;19;152416;-51
2022/01/18 06:34:33;;;;;;;;;;;;;;;21.26;42.42;103527.66;7281821;19;153592;-51
2022/01/18 06:37:01;;;;;;;;;;;;;;;21.30;42.29;103528.03;7284633;19;151644;-51
2022/01/18 06:39:27;;;;;;;;;;;;;;;21.34;42.26;103534.00;7283708;19;154634;-51
2022/01/18 06:41:55;;;;;;;;;;;;;;;21.38;41.94;103535.19;7288337;19;153500;-51
2022/01/18 06:44:24;;;;;;;;;;;;;;;21.41;42.18;103534.69;7282397;19;153811;-51
2022/01/18 06:46:51;;;;;;;;;;;;;;;21.44;41.92;103537.84;7279986;19;153337;-51
2022/01/18 06:49:18;;;;;;;;;;;;;;;21.48;41.88;103532.59;7282162;19;151901;-51
2022/01/18 06:51:45;;;;;;;;;;;;;;;21.52;41.85;103536.59;7284672;19;152757;-52
2022/01/18 06:54:16;;;;;;;;;;;;;;;21.54;41.70;103523.97;7288897;19;154133;-53
2022/01/18 06:56:46;;;;;;;;;;;;;;;21.58;41.66;103527.97;7290794;19;151854;-51
2022/01/18 06:59:14;;;;;;;;;;;;;;;21.62;41.86;103534.81;7290383;19;153654;-51
2022/01/18 07:01:41;;;;;;;;;;;;;;;21.65;41.64;103539.94;7287784;19;154105;-50
2022/01/18 07:04:08;;;;;;;;;;;;;;;21.68;41.73;103535.75;7296993;19;152036;-51
2022/01/18 07:06:35;;;;;;;;;;;;;;;21.72;41.41;103542.59;7288687;19;153316;-50
2022/01/18 07:09:02;;;;;;;;;;;;;;;21.74;41.33;103544.06;7289818;19;151588;-51
2022/01/18 07:11:29;;;;;;;;;;;;;;;21.79;41.26;103539.63;7285896;19;155064;-51
2022/01/18 07:13:56;;;;;;;;;;;;;;;21.80;41.47;103541.34;7288444;19;153901;-51
2022/01/18 07:16:23;;;;;;;;;;;;;;;21.84;41.08;103554.66;7289418;19;151511;-51
2022/01/18 07:18:50;;;;;;;;;;;;;;;21.89;41.54;103556.69;7287990;19;153591;-51
2022/01/18 07:21:17;;;;;;;;;;;;;;;21.91;40.84;103565.72;7288413;19;153297;-51
2022/01/18 07:23:44;;;;;;;;;;;;;;;21.89;39.53;103556.69;7289874;19;151530;-51
2022/01/18 07:26:11;;;;;;;;;;;;;;;21.88;38.85;103555.00;7294694;19;152304;-52
2022/01/18 07:28:38;;;;;;;;;;;;;;;21.90;38.52;103555.56;7289280;19;151520;-52
2022/01/18 07:31:05;;;;;;;;;;;;;;;21.88;38.05;103566.25;7286582;19;152735;-50
2022/01/18 07:33:32;;;;;;;;;;;;;;;21.87;38.01;103565.38;7284765;19;152571;-51
2022/01/18 07:35:59;;;;;;;;;;;;;;;21.87;38.06;103564.53;7286527;19;152117;-51
2022/01/18 07:38:26;;;;;;;;;;;;;;;21.87;37.93;103558.91;7286710;19;153075;-52
2022/01/18 07:40:53;;;;;;;;;;;;;;;21.79;36.42;103570.59;7288683;19;153404;-52
2022/01/18 07:43:21;;;;;;;;;;;;;;;21.76;36.18;103566.28;7288105;19;151980;-52
2022/01/18 07:45:49;;;;;;;;;;;;;;;21.77;36.38;103570.81;7295269;19;153563;-52
2022/01/18 07:48:21;;;;;;;;;;;;;;;21.77;36.67;103565.19;7286829;19;151966;-52
2022/01/18 07:50:51;;;;;;;;;;;;;;;21.77;36.55;103570.81;7288393;19;152724;-52
2022/01/18 07:53:18;;;;;;;;;;;;;;;21.78;36.56;103569.72;7282778;19;153608;-52
2022/01/18 07:55:47;;;;;;;;;;;;;;;21.77;36.72;103573.63;7288699;19;151818;-52
2022/01/18 07:58:14;;;;;;;;;;;;;;;21.78;36.57;103578.16;7287081;19;153642;-52
2022/01/18 08:00:41;;;;;;;;;;;;;;;21.79;36.53;103579.03;7287167;19;152226;-53
2022/01/18 08:03:09;;;;;;;;;;;;;;;21.78;36.73;103578.16;7286241;19;151758;-52
2022/01/18 08:05:37;;;;;;;;;;;;;;;21.80;36.46;103580.75;7286503;19;153638;-52
2022/01/18 08:08:07;;;;;;;;;;;;;;;21.79;36.56;103579.88;7291184;19;154143;-52
2022/01/18 08:10:35;;;;;;;;;;;;;;;21.80;36.52;103580.75;7289018;19;153516;-52
2022/01/18 08:13:03;;;;;;;;;;;;;;;21.79;36.45;103579.88;7285386;19;153217;-52
2022/01/18 08:18:01;;;;;;;;;;;;;;;21.80;36.22;103575.97;7288075;19;153592;-54
2022/01/18 08:20:29;;;;;;;;;;;;;;;21.83;36.37;103569.81;7286654;19;154310;-53
2022/01/18 08:22:56;;;;;;;;;;;;;;;21.89;37.18;103567.97;7286235;19;151762;-53
2022/01/18 08:25:24;;;;;;;;;;;;;;;21.89;36.55;103570.78;7288307;19;153058;-52
2022/01/18 08:27:51;;;;;;;;;;;;;;;21.88;36.53;103569.06;7286899;19;153561;-52
2022/01/18 08:30:19;;;;;;;;;;;;;;;21.88;36.50;103569.06;7293696;19;151916;-52
2022/01/18 08:32:48;;;;;;;;;;;;;;;21.87;36.38;103571.03;7285663;19;153279;-52
2022/01/18 08:35:15;;;;;;;;;;;;;;;21.87;36.27;103572.97;7285521;19;151895;-52
2022/01/18 08:37:42;;;;;;;;;;;;;;;21.86;36.56;103571.25;7286319;19;152979;-52
2022/01/18 08:40:10;;;;;;;;;;;;;;;21.85;36.44;103575.22;7284376;19;154009;-52
2022/01/18 08:42:37;;;;;;;;;;;;;;;21.83;36.16;103577.41;7273658;19;153195;-52
2022/01/18 08:45:04;;;;;;;;;;;;;;;21.83;36.51;103575.44;7275622;19;153238;-52
2022/01/18 08:47:31;;;;;;;;;;;;;;;21.83;36.00;103580.22;7281833;19;153448;-52
2022/01/18 08:49:58;;;;;;;;;;;;;;;21.82;36.07;103572.88;7283900;19;151920;-52
2022/01/18 08:52:25;;;;;;;;;;;;;;;21.80;35.96;103577.94;7288562;19;153561;-53
2022/01/18 08:54:52;;;;;;;;;;;;;;;21.78;36.23;103569.72;7282377;19;152202;-53
2022/01/18 08:57:19;;;;;;;;;;;;;;;21.76;36.11;103571.94;7283370;19;153374;-52
2022/01/18 08:59:48;;;;;;;;;;;;;;;21.74;36.15;103571.34;7282760;19;152576;-52
2022/01/18 09:02:16;;;;;;;;;;;;;;;21.71;36.17;103569.88;7284205;19;151775;-52
2022/01/18 09:04:43;;;;;;;;;;;;;;;21.71;35.91;103583.94;7283171;19;153676;-52
2022/01/18 09:07:10;;;;;;;;;;;;;;;21.71;36.12;103585.94;7283424;19;152172;-52
2022/01/18 09:09:39;;;;;;;;;;;;;;;21.70;36.04;103592.66;7286778;19;151596;-53
2022/01/18 09:12:07;;;;;;;;;;;;;;;21.70;35.91;103590.69;7286547;19;153215;-52
2022/01/18 09:14:34;;;;;;;;;;;;;;;21.70;36.15;103593.50;7289269;19;153515;-52
2022/01/18 09:17:01;;;;;;;;;;;;;;;21.70;36.03;103607.59;7287098;19;153890;-53
2022/01/18 09:19:28;;;;;;;;;;;;;;;21.70;36.21;103609.53;7283559;19;153471;-52
2022/01/18 09:21:57;;;;;;;;;;;;;;;21.69;36.14;103607.81;7286340;19;152144;-53
2022/01/18 09:24:24;;;;;;;;;;;;;;;21.76;37.41;103610.50;7284567;19;152730;-52
2022/01/18 09:26:53;;;;;;;;;;;;;;;21.76;37.50;103616.97;7282993;19;153413;-52
2022/01/18 09:29:20;;;;;;;;;;;;;;;21.74;37.58;103620.03;7271456;19;154018;-53
2022/01/18 09:31:47;;;;;;;;;;;;;;;21.72;37.75;103613.78;7281096;19;153324;-52
2022/01/18 09:34:14;;;;;;;;;;;;;;;21.72;37.35;103621.38;7281389;19;153888;-53
2022/01/18 09:36:42;;;;;;;;;;;;;;;21.69;37.61;103611.50;7292983;19;151785;-52
2022/01/18 09:39:09;;;;;;;;;;;;;;;21.67;37.80;103616.50;7282716;19;154154;-52
2022/01/18 09:41:38;;;;;;;;;;;;;;;21.65;37.34;103612.25;7285575;19;151578;-52
2022/01/18 09:44:06;;;;;;;;;;;;;;;21.63;37.62;103620.06;7282749;19;152739;-52
2022/01/18 09:46:33;;;;;;;;;;;;;;;21.60;37.56;103614.97;7278185;19;152761;-52
2022/01/18 09:49:00;;;;;;;;;;;;;;;21.59;37.09;103610.44;7286032;19;151951;-52
2022/01/18 09:51:28;;;;;;;;;;;;;;;21.56;37.30;103608.13;7283058;19;153131;-52
2022/01/18 09:53:57;;;;;;;;;;;;;;;21.53;36.99;103615.09;7280590;19;153491;-53
2022/01/18 09:56:30;;;;;;;;;;;;;;;21.51;37.26;103616.47;7291665;19;152045;-53
2022/01/18 09:58:57;;;;;;;;;;;;;;;21.47;37.32;103618.94;7282743;19;154020;-52
2022/01/18 10:01:25;;;;;;;;;;;;;;;21.45;36.90;103623.06;7284482;19;152145;-52
2022/01/18 10:04:11;;;;;;;;;;;;;;;21.42;37.02;103620.78;7285164;19;151896;-53
2022/01/18 10:06:39;;;;;;;;;;;;;;;21.41;37.33;103616.25;7281630;19;153309;-52
2022/01/18 10:09:10;;;;;;;;;;;;;;;21.39;37.33;103622.16;7282955;19;151742;-52
2022/01/18 10:11:37;;;;;;;;;;;;;;;21.37;36.95;103615.91;7282951;19;152663;-53
2022/01/18 10:14:17;;;;;;;;;;;;;;;21.37;37.12;103618.72;7281483;19;153258;-52
2022/01/18 10:16:44;;;;;;;;;;;;;;;21.36;36.94;103614.19;7282601;19;152169;-52
2022/01/18 10:19:12;;;;;;;;;;;;;;;21.35;37.31;103612.47;7289971;19;153533;-52
2022/01/18 10:21:46;;;;;;;;;;;;;;;21.33;37.05;103606.25;7283544;19;152224;-52
2022/01/18 10:24:16;;;;;;;;;;;;;;;21.33;37.19;103606.25;7284005;19;153104;-52
2022/01/18 10:26:45;;;;;;;;;;;;;;;21.31;37.05;103605.63;7281730;19;154660;-53
2022/01/18 10:29:13;;;;;;;;;;;;;;;21.29;37.14;103597.47;7281778;19;151747;-52
2022/01/18 10:31:45;;;;;;;;;;;;;;;21.30;37.00;103603.94;7282247;19;153750;-53
2022/01/18 10:36:51;;;;;;;;;;;;;;;21.26;36.98;103603.56;7283803;19;151631;-52
2022/01/18 10:39:20;;;;;;;;;;;;;;;21.24;37.16;103593.69;7283502;19;154087;-52
2022/01/18 10:41:47;;;;;;;;;;;;;;;21.22;36.69;103602.38;7288383;19;153513;-53
2022/01/18 10:44:15;;;;;;;;;;;;;;;21.21;36.90;103592.22;7284151;19;153446;-53
2022/01/18 10:46:44;;;;;;;;;;;;;;;21.18;36.89;103598.34;7280654;19;153797;-52
2022/01/18 10:49:24;;;;;;;;;;;;;;;21.15;36.82;103586.75;7281763;19;152200;-52
2022/01/18 10:51:56;;;;;;;;;;;;;;;21.13;37.08;103592.59;7283944;19;153244;-52
2022/01/18 10:54:32;;;;;;;;;;;;;;;21.09;36.83;103582.94;7279472;19;153612;-52
2022/01/18 10:57:02;;;;;;;;;;;;;;;21.06;36.95;103596.63;7281139;19;152009;-52
2022/01/18 10:59:29;;;;;;;;;;;;;;;21.02;36.96;103598.22;7283955;19;152637;-52
2022/01/18 11:01:59;;;;;;;;;;;;;;;20.97;37.08;103600.94;7282517;19;153858;-52
2022/01/18 11:04:28;;;;;;;;;;;;;;;20.93;36.97;103597.75;7291163;19;152243;-53
2022/01/18 11:06:56;;;;;;;;;;;;;;;20.88;36.90;103603.25;7278958;19;153582;-53
2022/01/18 11:09:23;;;;;;;;;;;;;;;20.85;36.96;103601.78;7283287;19;152077;-52
2022/01/18 11:11:50;;;;;;;;;;;;;;;20.82;37.15;103604.25;7282523;19;153261;-53
2022/01/18 11:14:20;;;;;;;;;;;;;;;20.78;36.80;103597.41;7279409;19;154455;-52
2022/01/18 11:16:47;;;;;;;;;;;;;;;20.73;37.12;103589.72;7280970;19;151623;-52
2022/01/18 11:21:48;;;;;;;;;;;;;;;20.67;36.97;103598.28;7279275;19;153132;-52
2022/01/18 11:24:15;;;;;;;;;;;;;;;20.62;36.99;103587.78;7282149;19;151991;-52
2022/01/18 11:26:44;;;;;;;;;;;;;;;20.59;37.46;103595.81;7288816;19;153415;-53
2022/01/18 11:29:12;;;;;;;;;;;;;;;20.55;37.22;103584.22;7280238;19;152224;-52
2022/01/18 11:31:40;;;;;;;;;;;;;;;20.52;37.54;103586.66;7282107;19;151699;-52
2022/01/18 11:34:10;;;;;;;;;;;;;;;20.48;37.47;103591.94;7279186;19;153938;-52
2022/01/18 11:36:40;;;;;;;;;;;;;;;20.44;37.37;103581.44;7281212;19;152108;-52
2022/01/18 11:39:08;;;;;;;;;;;;;;;20.41;37.36;103577.13;7287567;19;153342;-53
2022/01/18 11:41:35;;;;;;;;;;;;;;;20.37;37.57;103576.78;7286944;19;155211;-52
2022/01/18 11:44:05;;;;;;;;;;;;;;;20.34;37.57;103565.19;7288863;19;152286;-53
2022/01/18 11:46:35;;;;;;;;;;;;;;;20.31;37.51;103569.31;7289025;19;152773;-52
2022/01/18 11:49:04;;;;;;;;;;;;;;;20.27;37.77;103570.88;7294243;19;152265;-52
2022/01/18 11:51:35;;;;;;;;;;;;;;;20.24;37.79;103559.28;7288877;19;152757;-53
2022/01/18 11:54:19;;;;;;;;;;;;;;;20.21;38.11;103560.63;7286717;19;153436;-52
2022/01/18 11:56:47;;;;;;;;;;;;;;;20.18;37.74;103561.09;7286825;19;151826;-52
2022/01/18 11:59:15;;;;;;;;;;;;;;;20.16;37.74;103556.84;7286774;19;153317;-52
2022/01/18 12:01:46;;;;;;;;;;;;;;;20.13;38.19;103566.56;7287393;19;152481;-52
2022/01/18 12:04:13;;;;;;;;;;;;;;;20.11;38.22;103557.56;7288234;19;151653;-53
2022/01/18 12:06:43;;;;;;;;;;;;;;;20.07;38.40;103555.47;7285895;19;153111;-52
2022/01/18 12:09:13;;;;;;;;;;;;;;;20.05;38.11;103558.50;7294821;19;152600;-52
2022/01/18 12:11:40;;;;;;;;;;;;;;;20.02;38.28;103544.97;7284911;19;152529;-52
2022/01/18 12:14:07;;;;;;;;;;;;;;;20.00;38.43;103547.16;7285658;19;153984;-52
2022/01/18 12:16:33;;;;;;;;;;;;;;;19.98;38.43;103538.16;7287845;19;152025;-52
2022/01/18 12:19:03;;;;;;;;;;;;;;;19.95;38.08;103541.41;7287959;19;152919;-53
2022/01/18 12:21:31;;;;;;;;;;;;;;;19.93;38.52;103544.47;7284015;19;153888;-52
2022/01/18 12:24:01;;;;;;;;;;;;;;;19.90;38.39;103538.47;7289669;19;151640;-53
2022/01/18 12:34:13;;;;;;;;;;;;;;;19.82;38.54;103534.06;7280334;19;154011;-52
2022/01/18 12:36:40;;;;;;;;;;;;;;;19.79;38.21;103526.16;7284165;19;153919;-53
2022/01/18 12:39:07;;;;;;;;;;;;;;;19.77;38.16;103519.91;7284419;19;152840;-52
2022/01/18 12:41:37;;;;;;;;;;;;;;;19.76;38.19;103515.38;7282428;19;153235;-52
2022/01/18 12:46:34;;;;;;;;;;;;;;;19.71;38.23;103500.41;7284002;19;153934;-52
2022/01/18 12:49:03;;;;;;;;;;;;;;;19.69;38.69;103500.63;7280726;19;153477;-52
2022/01/18 12:51:30;;;;;;;;;;;;;;;19.67;38.40;103502.81;7281545;19;152067;-52
2022/01/18 12:53:57;;;;;;;;;;;;;;;19.66;38.57;103491.84;7287679;19;153316;-52
2022/01/18 12:56:25;;;;;;;;;;;;;;;19.64;38.81;103497.69;7283549;19;152041;-52
2022/01/18 12:58:52;;;;;;;;;;;;;;;19.60;38.47;103485.25;7282325;19;153029;-53
2022/01/18 13:01:24;;;;;;;;;;;;;;;19.58;38.91;103487.41;7280301;19;152338;-53
2022/01/18 13:03:53;;;;;;;;;;;;;;;19.58;38.62;103481.00;7282031;19;151832;-53
2022/01/18 13:06:22;;;;;;;;;;;;;;;19.56;38.69;103478.41;7283317;19;152632;-53
2022/01/18 13:08:52;;;;;;;;;;;;;;;19.54;38.68;103474.97;7277291;19;155700;-53
2022/01/18 13:11:20;;;;;;;;;;;;;;;19.52;38.80;103477.19;7283317;19;152524;-52
2022/01/18 13:13:55;;;;;;;;;;;;;;;19.48;38.79;103471.22;7281242;19;152718;-52
2022/01/18 13:26:27;;;;;;;;;;;;;;;19.38;39.34;103470.91;7283092;19;152661;-52
2022/01/18 13:28:55;;;;;;;;;;;;;;;19.35;39.16;103462.94;7281451;19;153218;-55
2022/01/18 13:31:24;;;;;;;;;;;;;;;19.34;39.28;103460.41;7282279;19;151806;-52
2022/01/18 13:33:51;;;;;;;;;;;;;;;19.30;39.35;103451.63;7281069;19;153489;-52
2022/01/18 13:36:21;;;;;;;;;;;;;;;19.29;39.33;103455.50;7279577;19;153197;-52
2022/01/18 13:38:49;;;;;;;;;;;;;;;19.28;39.63;103441.72;7288456;19;151699;-54
2022/01/18 13:41:17;;;;;;;;;;;;;;;19.26;39.45;103439.16;7281847;19;153778;-52
2022/01/18 13:43:46;;;;;;;;;;;;;;;19.23;39.47;103435.97;7280807;19;151902;-52
2022/01/18 13:46:17;;;;;;;;;;;;;;;19.24;39.39;103434.88;7281886;19;152779;-53
2022/01/18 13:48:44;;;;;;;;;;;;;;;19.24;39.46;103440.50;7281635;19;154208;-52
2022/01/18 13:53:41;;;;;;;;;;;;;;;19.19;39.46;103427.19;7282144;19;153471;-52
2022/01/18 13:56:13;;;;;;;;;;;;;;;19.16;39.83;103429.63;7278790;19;153841;-52
2022/01/18 13:58:42;;;;;;;;;;;;;;;19.14;39.70;103429.84;7289001;19;151813;-52
2022/01/18 14:01:13;;;;;;;;;;;;;;;19.11;39.57;103419.13;7281013;19;153441;-52
2022/01/18 14:03:42;;;;;;;;;;;;;;;19.10;39.92;103423.88;7285818;19;151798;-52
2022/01/18 14:06:11;;;;;;;;;;;;;;;19.07;39.60;103413.16;7285162;19;154736;-52
2022/01/18 14:08:42;;;;;;;;;;;;;;;19.05;39.92;103418.13;7280473;19;154502;-52
2022/01/18 14:11:10;;;;;;;;;;;;;;;19.02;40.06;103404.63;7281644;19;151817;-54
2022/01/18 14:13:37;;;;;;;;;;;;;;;19.00;40.00;103404.00;7281759;19;153283;-53
2022/01/18 14:16:07;;;;;;;;;;;;;;;18.98;39.95;103411.78;7275805;19;153997;-52
2022/01/18 14:18:38;;;;;;;;;;;;;;;18.98;39.88;103414.59;7281223;19;151833;-52